Weather at Grand Manan Airport

Public forecast

Using degrees Celsius for public forecast. Weather courtesy of forecast.io.

Closest aviation weather report (METAR) to Grand Manan Airport

Closest report is Saint John Airport, 52.8 nm (97.8 km) NE. Retrieved 2020/12/03 13:00 UTC (14 minutes ago):

CYSJ 031300Z 26006KT 220V290 15SM FEW010 FEW030 01/M01 A2997 RMK SF1SC1 SF TR SC TR SLP154

Closest aviation forecast (TAF) to Grand Manan Airport

Closest forecast is Saint John Airport, 52.8 nm (97.8 km) NE. Retrieved 2020/12/03 12:39 UTC (35 minutes ago):

TAF CYSJ 031138Z 0312/0324 27010KT P6SM FEW020 TEMPO 0312/0313 BKN020 FM031300 26012KT P6SM SCT020 BECMG 0314/0316 23012KT FM032300 22008KT P6SM BKN025 RMK NXT FCST BY 031800Z